createdAt,value
2023-01-23T00:00:49.053Z,6.25
2023-01-23T00:05:01.559Z,3.47
2023-01-23T00:09:14.322Z,2.88
2023-01-23T00:13:27.152Z,5.07
2023-01-23T00:17:43.549Z,5.32
2023-01-23T00:21:55.987Z,5.75
2023-01-23T00:26:16.550Z,5.22
2023-01-23T00:30:32.382Z,6.80
2023-01-23T00:34:45.631Z,7.70
2023-01-23T00:38:59.018Z,7.97
2023-01-23T00:43:22.679Z,6.70
2023-01-23T00:47:35.198Z,6.00
2023-01-23T00:51:48.221Z,7.03
2023-01-23T00:56:04.976Z,6.00
2023-01-23T01:00:18.805Z,6.25
2023-01-23T01:04:31.407Z,6.88
2023-01-23T01:08:44.026Z,6.25
2023-01-23T01:12:58.172Z,8.07
2023-01-23T01:17:10.610Z,7.00
2023-01-23T01:21:23.461Z,5.72
2023-01-23T01:25:36.704Z,7.90
2023-01-23T01:29:49.371Z,6.70
2023-01-23T01:34:01.986Z,5.43
2023-01-23T01:38:14.611Z,5.70
2023-01-23T01:42:29.412Z,6.55
2023-01-23T01:46:41.841Z,6.05
2023-01-23T01:50:55.171Z,7.22
2023-01-23T01:55:08.626Z,6.07
2023-01-23T01:59:24.426Z,5.85
2023-01-23T02:03:37.851Z,7.05
2023-01-23T02:08:05.944Z,6.78
2023-01-23T02:12:18.574Z,6.10
2023-01-23T02:16:41.045Z,7.57
2023-01-23T02:21:16.828Z,6.25
2023-01-23T02:25:44.614Z,6.32
2023-01-23T02:29:57.091Z,5.93
2023-01-23T02:34:14.929Z,7.22
2023-01-23T02:38:36.400Z,6.95
2023-01-23T02:42:51.385Z,6.22
2023-01-23T02:47:14.093Z,6.63
2023-01-23T02:51:26.830Z,7.57
2023-01-23T02:55:44.223Z,7.00
2023-01-23T03:00:15.289Z,8.75
2023-01-23T03:04:27.672Z,6.57
2023-01-23T03:08:48.276Z,6.07
2023-01-23T03:13:12.793Z,6.15
2023-01-23T03:17:26.174Z,8.27
2023-01-23T03:21:41.542Z,6.70
2023-01-23T03:26:03.859Z,7.85
2023-01-23T03:30:26.575Z,6.63
2023-01-23T03:34:39.609Z,8.40
2023-01-23T03:39:10.651Z,7.57
2023-01-23T03:43:32.965Z,6.22
2023-01-23T03:47:45.350Z,7.25
2023-01-23T03:51:57.854Z,8.15
2023-01-23T03:56:20.236Z,6.93
2023-01-23T04:00:32.875Z,6.72
2023-01-23T04:04:45.261Z,7.97
2023-01-23T04:08:59.018Z,7.93
2023-01-23T04:13:11.682Z,8.40
2023-01-23T04:17:24.169Z,7.82
2023-01-23T04:21:36.569Z,6.25
2023-01-23T04:25:49.226Z,7.25
2023-01-23T04:30:01.882Z,7.40
2023-01-23T04:34:14.515Z,6.82
2023-01-23T04:38:29.621Z,7.90
2023-01-23T04:42:42.012Z,6.68
2023-01-23T04:46:55.159Z,9.18
2023-01-23T04:51:07.629Z,7.53
2023-01-23T04:55:20.038Z,8.80
2023-01-23T04:59:32.472Z,8.00
2023-01-23T05:03:44.897Z,6.60
2023-01-23T05:07:57.479Z,8.15
2023-01-23T05:12:09.901Z,7.97
2023-01-23T05:16:32.494Z,9.68
2023-01-23T05:20:44.879Z,10.18
2023-01-23T05:25:03.356Z,9.35
2023-01-23T05:29:25.936Z,8.38
2023-01-23T05:33:38.352Z,7.38
2023-01-23T05:37:52.881Z,9.05
2023-01-23T05:42:14.269Z,8.35
2023-01-23T05:46:26.743Z,10.95
2023-01-23T05:50:39.164Z,9.00
2023-01-23T05:54:51.740Z,8.68
2023-01-23T05:59:06.202Z,8.63
2023-01-23T06:03:18.633Z,9.98
2023-01-23T06:07:31.107Z,9.75
2023-01-23T06:11:43.697Z,7.03
2023-01-23T06:15:58.173Z,10.05
2023-01-23T06:20:13.457Z,9.43
2023-01-23T06:24:27.341Z,9.95
2023-01-23T06:28:40.444Z,8.68
2023-01-23T06:32:57.861Z,8.80
2023-01-23T06:37:10.505Z,9.00
2023-01-23T06:41:33.000Z,8.15
2023-01-23T06:45:47.113Z,11.60
2023-01-23T06:49:59.560Z,10.88
2023-01-23T06:54:11.956Z,11.57
2023-01-23T06:58:24.576Z,11.45
2023-01-23T07:02:39.950Z,9.85
2023-01-23T07:06:52.797Z,9.90
2023-01-23T07:11:05.558Z,8.63
2023-01-23T07:15:18.108Z,10.98
2023-01-23T07:19:30.508Z,12.77
2023-01-23T07:23:42.914Z,12.32
2023-01-23T07:27:55.563Z,10.27
2023-01-23T07:32:10.818Z,10.05
2023-01-23T07:36:23.532Z,10.23
2023-01-23T07:40:36.167Z,10.77
2023-01-23T07:44:48.798Z,9.70
2023-01-23T07:49:01.682Z,5.10
2023-01-23T07:53:14.102Z,7.32
2023-01-23T07:57:26.529Z,7.50
2023-01-23T08:01:38.920Z,5.75
2023-01-23T08:05:51.393Z,3.97
2023-01-23T08:10:03.813Z,7.97
2023-01-23T08:14:21.755Z,7.07
2023-01-23T08:18:35.050Z,8.18
2023-01-23T08:22:48.415Z,8.68
2023-01-23T08:27:01.019Z,7.28
2023-01-23T08:31:14.305Z,8.07
2023-01-23T08:35:26.845Z,6.93
2023-01-23T08:39:39.237Z,7.78
2023-01-23T08:43:52.023Z,8.93
2023-01-23T08:48:04.467Z,5.57
2023-01-23T08:52:16.918Z,6.68
2023-01-23T08:56:29.337Z,4.90
2023-01-23T09:00:42.563Z,5.85
2023-01-23T09:04:54.967Z,7.70
2023-01-23T09:09:07.365Z,9.35
2023-01-23T09:13:29.942Z,9.85
2023-01-23T09:17:42.542Z,8.02
2023-01-23T09:21:57.691Z,9.23
2023-01-23T09:26:13.336Z,7.00
2023-01-23T09:30:25.783Z,6.35
2023-01-23T09:34:39.014Z,9.00
2023-01-23T09:38:51.897Z,10.73
2023-01-23T09:43:32.827Z,8.02
2023-01-23T09:47:55.021Z,8.20
2023-01-23T09:52:16.022Z,8.65
2023-01-23T09:56:46.127Z,7.78
2023-01-23T10:00:59.024Z,7.78
2023-01-23T10:05:17.192Z,8.65
2023-01-23T10:09:41.635Z,6.82
2023-01-23T10:14:21.728Z,5.07
2023-01-23T10:18:44.117Z,9.77
2023-01-23T10:23:25.602Z,8.25
2023-01-23T10:27:46.585Z,8.25
2023-01-23T10:32:02.671Z,7.57
2023-01-23T10:36:24.132Z,8.05
2023-01-23T10:40:57.315Z,8.27
2023-01-23T10:45:22.304Z,8.20
2023-01-23T10:49:46.658Z,9.10
2023-01-23T10:54:31.707Z,7.90
2023-01-23T10:58:45.613Z,7.70
2023-01-23T11:03:22.139Z,8.60
2023-01-23T11:07:38.824Z,8.18
2023-01-23T11:12:07.025Z,7.75
2023-01-23T11:16:23.683Z,8.48
2023-01-23T11:20:41.129Z,7.07
2023-01-23T11:24:53.848Z,8.30
2023-01-23T11:29:25.667Z,8.00
2023-01-23T11:34:04.172Z,8.15
2023-01-23T11:38:31.362Z,7.47
2023-01-23T11:42:44.770Z,8.65
2023-01-23T11:47:41.559Z,6.00
2023-01-23T11:52:08.680Z,7.80
2023-01-23T11:57:03.849Z,8.38
2023-01-23T12:01:28.236Z,7.55
2023-01-23T12:06:19.287Z,6.97
2023-01-23T12:10:57.937Z,7.50
2023-01-23T12:15:23.881Z,8.02
2023-01-23T12:20:11.582Z,7.72
2023-01-23T12:24:26.879Z,8.05
2023-01-23T12:29:30.492Z,6.28
2023-01-23T12:33:55.876Z,8.65
2023-01-23T12:38:20.313Z,6.78
2023-01-23T12:42:57.547Z,8.95
2023-01-23T12:47:17.517Z,7.05
2023-01-23T12:51:40.214Z,6.85
2023-01-23T12:56:16.502Z,8.70
2023-01-23T13:01:05.817Z,6.68
2023-01-23T13:05:41.068Z,9.30
2023-01-23T13:10:50.615Z,5.85
2023-01-23T13:15:22.725Z,7.60
2023-01-23T13:20:01.836Z,7.22
2023-01-23T13:25:05.066Z,7.57
2023-01-23T13:29:50.467Z,4.82
2023-01-23T13:34:16.094Z,6.82
2023-01-23T13:38:41.065Z,5.28
2023-01-23T13:42:53.566Z,6.85
2023-01-23T14:24:49.677Z,8.35
2023-01-23T14:29:23.242Z,7.68
2023-01-23T14:33:45.071Z,6.82
2023-01-23T14:38:01.912Z,7.72
2023-01-23T14:42:31.230Z,6.68
2023-01-23T14:51:10.852Z,7.43
2023-01-23T14:55:30.277Z,6.82
2023-01-23T14:59:45.389Z,7.22
2023-01-23T15:04:07.960Z,7.60
2023-01-23T15:08:32.987Z,7.88
2023-01-23T15:13:28.590Z,7.50
2023-01-23T15:17:45.951Z,6.35
2023-01-23T15:22:27.126Z,6.05
2023-01-23T15:26:46.290Z,7.22
2023-01-23T15:31:35.505Z,6.70
2023-01-23T15:36:24.991Z,7.57
2023-01-23T15:40:39.114Z,8.40
2023-01-23T15:45:01.942Z,8.13
2023-01-23T15:49:24.808Z,8.60
2023-01-23T15:53:37.616Z,7.82
2023-01-23T15:57:52.909Z,8.48
2023-01-23T16:02:29.426Z,7.53
2023-01-23T16:06:43.644Z,7.90
2023-01-23T16:10:56.705Z,7.45
2023-01-23T16:15:25.832Z,8.13
2023-01-23T16:23:52.358Z,6.38
2023-01-23T16:28:30.421Z,5.95
2023-01-23T16:32:43.234Z,8.27
2023-01-23T16:37:01.540Z,7.32
2023-01-23T16:41:13.984Z,8.10
2023-01-23T16:45:36.421Z,7.63
2023-01-23T16:49:53.712Z,7.80
2023-01-23T16:54:18.292Z,8.90
2023-01-23T16:58:41.378Z,9.50
2023-01-23T17:03:09.344Z,10.73
2023-01-23T17:07:22.005Z,9.60
2023-01-23T17:11:44.934Z,11.48
2023-01-23T17:15:57.696Z,6.78
2023-01-23T17:20:14.424Z,10.20
2023-01-23T17:24:34.033Z,9.15
2023-01-23T17:28:46.557Z,6.50
2023-01-23T17:32:59.417Z,9.40
2023-01-23T17:37:21.348Z,10.02
2023-01-23T17:41:33.769Z,10.57
2023-01-23T17:45:49.681Z,10.43
2023-01-23T17:50:03.988Z,10.27
2023-01-23T17:54:20.802Z,9.55
2023-01-23T17:58:33.282Z,8.77
2023-01-23T18:03:00.708Z,10.30
2023-01-23T18:07:17.046Z,9.90
2023-01-23T18:11:31.519Z,9.90
2023-01-23T18:16:05.353Z,11.25
2023-01-23T18:20:22.613Z,10.35
2023-01-23T18:24:35.843Z,11.32
2023-01-23T18:29:10.597Z,11.13
2023-01-23T18:34:07.243Z,9.65
2023-01-23T18:38:44.480Z,11.18
2023-01-23T18:43:25.386Z,11.48
2023-01-23T18:47:39.130Z,11.63
2023-01-23T18:51:57.409Z,10.25
2023-01-23T18:56:43.941Z,7.25
2023-01-23T19:01:17.340Z,6.90
2023-01-23T19:05:34.869Z,10.63
2023-01-23T19:09:49.354Z,8.48
2023-01-23T19:14:41.803Z,7.70
2023-01-23T19:19:15.703Z,9.73
2023-01-23T19:24:01.731Z,9.88
2023-01-23T19:28:15.695Z,10.40
2023-01-23T19:32:28.737Z,7.22
2023-01-23T19:36:51.243Z,9.63
2023-01-23T19:41:04.424Z,10.93
2023-01-23T19:45:19.641Z,10.32
2023-01-23T19:49:32.278Z,9.73
2023-01-23T19:53:55.578Z,9.43
2023-01-23T19:58:08.509Z,9.77
2023-01-23T20:02:24.462Z,9.50
2023-01-23T20:06:41.846Z,11.32
2023-01-23T20:10:54.356Z,9.35
2023-01-23T20:15:08.137Z,9.98
2023-01-23T20:19:21.090Z,7.28
2023-01-23T20:23:33.789Z,9.82
2023-01-23T20:27:56.209Z,9.50
2023-01-23T20:32:08.825Z,9.63
2023-01-23T20:36:22.973Z,9.70
2023-01-23T20:40:41.933Z,10.02
2023-01-23T20:44:54.583Z,9.15
2023-01-23T20:49:07.021Z,10.00
2023-01-23T20:53:32.534Z,10.13
2023-01-23T20:58:14.155Z,11.05
2023-01-23T21:02:34.963Z,9.45
2023-01-23T21:06:48.158Z,9.55
2023-01-23T21:11:14.799Z,9.82
2023-01-23T21:15:29.538Z,10.82
2023-01-23T21:19:43.555Z,12.27
2023-01-23T21:23:56.018Z,7.80
2023-01-23T21:28:08.444Z,10.85
2023-01-23T21:32:22.159Z,9.00
2023-01-23T21:36:35.543Z,9.73
2023-01-23T21:40:47.982Z,10.50
2023-01-23T21:45:10.800Z,8.80
2023-01-23T21:49:23.290Z,9.77
2023-01-23T21:53:37.956Z,8.70
2023-01-23T21:57:51.043Z,9.25
2023-01-23T22:02:03.670Z,10.27
2023-01-23T22:06:16.185Z,12.43
2023-01-23T22:10:39.269Z,9.75
2023-01-23T22:14:51.686Z,10.23
2023-01-23T22:19:04.249Z,10.65
2023-01-23T22:23:16.869Z,8.32
2023-01-23T22:27:29.502Z,11.32
2023-01-23T22:31:53.104Z,7.65
2023-01-23T22:36:08.054Z,9.02
2023-01-23T22:40:30.469Z,10.25
2023-01-23T22:44:43.068Z,10.90
2023-01-23T22:48:55.648Z,8.38
2023-01-23T22:53:18.365Z,10.38
2023-01-23T22:57:30.798Z,12.18
2023-01-23T23:01:43.221Z,11.32
2023-01-23T23:06:01.519Z,12.02
2023-01-23T23:10:14.161Z,12.53
2023-01-23T23:14:26.606Z,10.95
2023-01-23T23:18:41.997Z,11.93
2023-01-23T23:22:54.456Z,11.70
2023-01-23T23:27:07.150Z,12.07
2023-01-23T23:31:19.815Z,11.10
2023-01-23T23:35:32.920Z,10.55
2023-01-23T23:39:50.476Z,10.90
2023-01-23T23:44:03.252Z,9.70
2023-01-23T23:48:15.665Z,10.82
2023-01-23T23:52:28.110Z,10.43
2023-01-23T23:56:40.582Z,10.90
